createdAt,value
2023-01-30T00:01:14.233Z,82.9
2023-01-30T00:02:30.360Z,83.2
2023-01-30T00:03:46.481Z,83.2
2023-01-30T00:05:03.586Z,83.2
2023-01-30T00:06:20.691Z,83.2
2023-01-30T00:07:37.796Z,83.3
2023-01-30T00:08:54.902Z,83.3
2023-01-30T00:10:12.007Z,83.4
2023-01-30T00:11:29.113Z,83.6
2023-01-30T00:12:46.218Z,83.8
2023-01-30T00:14:03.323Z,83.9
2023-01-30T00:15:20.428Z,83.9
2023-01-30T00:16:37.534Z,83.9
2023-01-30T00:17:54.639Z,84
2023-01-30T00:19:11.744Z,84.2
2023-01-30T00:20:27.865Z,84
2023-01-30T00:21:44.970Z,84.3
2023-01-30T00:23:02.075Z,84.3
2023-01-30T00:24:19.180Z,84.2
2023-01-30T00:25:36.285Z,84
2023-01-30T00:26:53.390Z,84.2
2023-01-30T00:28:10.496Z,84.5
2023-01-30T00:29:26.622Z,84.6
2023-01-30T00:30:42.743Z,84.8
2023-01-30T00:31:58.870Z,84.7
2023-01-30T00:33:14.991Z,84.7
2023-01-30T00:34:32.096Z,84.8
2023-01-30T00:35:49.201Z,84.8
2023-01-30T00:37:06.307Z,84.8
2023-01-30T00:38:22.428Z,84.8
2023-01-30T00:39:39.533Z,84.7
2023-01-30T00:40:56.638Z,84.6
2023-01-30T00:42:13.743Z,84.6
2023-01-30T00:43:30.848Z,84.6
2023-01-30T00:44:47.954Z,84.3
2023-01-30T00:46:05.060Z,84.3
2023-01-30T00:47:22.165Z,84.2
2023-01-30T00:48:39.270Z,84.2
2023-01-30T00:49:56.375Z,84.3
2023-01-30T00:51:13.481Z,84.3
2023-01-30T00:52:30.586Z,84.2
2023-01-30T00:53:47.691Z,84.2
2023-01-30T00:55:03.812Z,84.1
2023-01-30T00:56:20.917Z,84
2023-01-30T00:57:38.022Z,84
2023-01-30T00:58:54.149Z,84
2023-01-30T01:00:10.270Z,84.1
2023-01-30T01:01:27.375Z,84.2
2023-01-30T01:02:44.480Z,84.1
2023-01-30T01:04:00.606Z,84
2023-01-30T01:05:16.728Z,84.1
2023-01-30T01:06:33.833Z,84
2023-01-30T01:07:50.938Z,84.1
2023-01-30T01:09:08.043Z,84
2023-01-30T01:10:25.148Z,83.9
2023-01-30T01:11:42.253Z,83.9
2023-01-30T01:12:59.358Z,84
2023-01-30T01:14:16.463Z,84.1
2023-01-30T01:15:33.568Z,84.2
2023-01-30T01:16:50.673Z,84.4
2023-01-30T01:18:07.778Z,84.3
2023-01-30T01:19:24.884Z,84.2
2023-01-30T01:20:41.989Z,84.3
2023-01-30T01:21:58.110Z,84.2
2023-01-30T01:23:15.216Z,84.2
2023-01-30T01:24:32.321Z,84.4
2023-01-30T01:25:49.426Z,84.6
2023-01-30T01:27:06.531Z,84.7
2023-01-30T01:28:23.636Z,84.9
2023-01-30T01:29:40.741Z,85
2023-01-30T01:30:56.868Z,85
2023-01-30T01:32:12.989Z,85
2023-01-30T01:33:29.115Z,85
2023-01-30T01:34:45.236Z,85
2023-01-30T01:36:02.342Z,85
2023-01-30T01:37:19.447Z,85
2023-01-30T01:38:36.552Z,85.1
2023-01-30T01:39:53.657Z,85.2
2023-01-30T01:41:10.763Z,85.1
2023-01-30T01:42:27.868Z,85.1
2023-01-30T01:43:44.973Z,85.1
2023-01-30T01:45:02.078Z,85.2
2023-01-30T01:46:19.184Z,85.3
2023-01-30T01:47:36.289Z,85.3
2023-01-30T01:48:53.394Z,85.2
2023-01-30T01:50:10.500Z,85.3
2023-01-30T01:51:26.621Z,85.2
2023-01-30T01:52:43.726Z,85.3
2023-01-30T01:54:00.831Z,85.4
2023-01-30T01:55:17.936Z,85.2
2023-01-30T01:56:35.041Z,85.2
2023-01-30T01:57:52.147Z,85.3
2023-01-30T01:59:09.252Z,85.4
2023-01-30T02:00:26.357Z,85.4
2023-01-30T02:01:42.483Z,85.3
2023-01-30T02:02:58.604Z,85.1
2023-01-30T02:04:14.731Z,85.1
2023-01-30T02:05:30.852Z,85.2
2023-01-30T02:06:47.957Z,85.1
2023-01-30T02:08:05.062Z,85
2023-01-30T02:09:22.167Z,85.1
2023-01-30T02:10:39.272Z,85.1
2023-01-30T02:11:56.377Z,85.1
2023-01-30T02:13:13.482Z,85.5
2023-01-30T02:14:30.587Z,85.5
2023-01-30T02:15:47.693Z,85.6
2023-01-30T02:17:04.798Z,85.5
2023-01-30T02:18:21.903Z,85.5
2023-01-30T02:19:39.008Z,85.8
2023-01-30T02:20:56.113Z,85.9
2023-01-30T02:22:12.234Z,86.1
2023-01-30T02:23:29.339Z,86.1
2023-01-30T02:24:46.444Z,86
2023-01-30T02:26:03.550Z,86
2023-01-30T02:27:20.655Z,86.2
2023-01-30T02:28:37.760Z,86.2
2023-01-30T02:29:54.865Z,86.2
2023-01-30T02:31:11.971Z,85.9
2023-01-30T02:32:29.076Z,85.8
2023-01-30T02:33:46.181Z,85.8
2023-01-30T02:35:03.286Z,85.9
2023-01-30T02:36:20.391Z,85.9
2023-01-30T02:37:37.497Z,85.8
2023-01-30T02:38:53.618Z,86.2
2023-01-30T02:40:10.723Z,86.2
2023-01-30T02:41:27.829Z,86.3
2023-01-30T02:42:44.935Z,86.2
2023-01-30T02:44:02.040Z,86.3
2023-01-30T02:45:19.145Z,86.2
2023-01-30T02:46:36.250Z,86.1
2023-01-30T02:47:53.355Z,86.2
2023-01-30T02:49:10.461Z,86.3
2023-01-30T02:50:27.566Z,86.2
2023-01-30T02:51:44.671Z,86.6
2023-01-30T02:53:01.776Z,86.7
2023-01-30T02:54:18.881Z,86.7
2023-01-30T02:55:35.002Z,86.7
2023-01-30T02:56:52.107Z,86.7
2023-01-30T02:58:09.212Z,87
2023-01-30T02:59:26.317Z,86.8
2023-01-30T03:00:43.423Z,86.7
2023-01-30T03:02:00.528Z,86.5
2023-01-30T03:03:17.634Z,86.7
2023-01-30T03:04:34.739Z,86.7
2023-01-30T03:05:51.844Z,86.5
2023-01-30T03:07:08.949Z,86.5
2023-01-30T03:08:26.054Z,86.5
2023-01-30T03:09:43.159Z,86.5
2023-01-30T03:11:00.264Z,86.5
2023-01-30T03:12:16.385Z,86.3
2023-01-30T03:13:33.490Z,86.5
2023-01-30T03:14:50.595Z,86.5
2023-01-30T03:16:07.700Z,86.5
2023-01-30T03:17:24.805Z,86.2
2023-01-30T03:18:41.910Z,86.5
2023-01-30T03:19:59.015Z,86.3
2023-01-30T03:21:16.120Z,86.3
2023-01-30T03:22:33.225Z,86.2
2023-01-30T03:23:50.330Z,86.2
2023-01-30T03:25:07.435Z,86.2
2023-01-30T03:26:24.540Z,86.5
2023-01-30T03:27:41.645Z,86.5
2023-01-30T03:28:57.767Z,86.3
2023-01-30T03:30:13.893Z,86.2
2023-01-30T03:31:30.014Z,86.1
2023-01-30T03:32:46.141Z,86.2
2023-01-30T03:34:02.262Z,86.3
2023-01-30T03:35:19.367Z,86.5
2023-01-30T03:36:36.472Z,86.7
2023-01-30T03:37:53.577Z,86.8
2023-01-30T03:39:10.682Z,86.8
2023-01-30T03:40:27.787Z,86.6
2023-01-30T03:41:44.893Z,86.9
2023-01-30T03:43:01.998Z,86.8
2023-01-30T03:44:19.103Z,86.6
2023-01-30T03:45:36.208Z,86.8
2023-01-30T03:46:53.313Z,86.8
2023-01-30T03:48:10.419Z,86.7
2023-01-30T03:49:27.524Z,86.9
2023-01-30T03:50:43.646Z,86.8
2023-01-30T03:52:00.751Z,86.7
2023-01-30T03:53:17.856Z,86.7
2023-01-30T03:54:34.961Z,86.8
2023-01-30T03:55:52.066Z,86.7
2023-01-30T03:57:09.172Z,86.8
2023-01-30T03:58:26.277Z,86.9
2023-01-30T03:59:42.403Z,87
2023-01-30T04:00:58.525Z,87
2023-01-30T04:02:15.630Z,86.8
2023-01-30T04:03:32.735Z,86.9
2023-01-30T04:04:49.841Z,87
2023-01-30T04:06:06.946Z,87
2023-01-30T04:07:23.072Z,86.9
2023-01-30T04:08:39.193Z,86.7
2023-01-30T04:09:56.299Z,86.8
2023-01-30T04:11:13.404Z,86.9
2023-01-30T04:12:30.509Z,86.9
2023-01-30T04:13:47.614Z,87
2023-01-30T04:15:04.719Z,87
2023-01-30T04:16:21.824Z,87
2023-01-30T04:17:38.929Z,87.1
2023-01-30T04:18:56.034Z,87.3
2023-01-30T04:20:13.139Z,87.3
2023-01-30T04:21:30.245Z,87.2
2023-01-30T04:22:47.350Z,87.3
2023-01-30T04:24:04.455Z,87.5
2023-01-30T04:25:20.576Z,87.5
2023-01-30T04:26:37.681Z,87.3
2023-01-30T04:27:54.787Z,87.5
2023-01-30T04:29:11.892Z,87.2
2023-01-30T04:30:28.997Z,87.2
2023-01-30T04:31:46.102Z,87.3
2023-01-30T04:33:03.208Z,87.5
2023-01-30T04:34:19.334Z,87.5
2023-01-30T04:35:35.455Z,87.3
2023-01-30T04:36:52.560Z,87.5
2023-01-30T04:38:08.687Z,87.7
2023-01-30T04:39:24.808Z,87.7
2023-01-30T04:40:41.913Z,87.7
2023-01-30T04:41:59.018Z,87.5
2023-01-30T04:43:16.122Z,87.3
2023-01-30T04:44:33.227Z,87.3
2023-01-30T04:45:50.332Z,87.5
2023-01-30T04:47:07.438Z,87.5
2023-01-30T04:48:24.543Z,87.8
2023-01-30T04:49:41.648Z,88
2023-01-30T04:50:58.753Z,87.9
2023-01-30T04:52:15.858Z,87.8
2023-01-30T04:53:32.964Z,87.8
2023-01-30T04:54:50.069Z,87.8
2023-01-30T04:56:06.191Z,87.7
2023-01-30T04:57:23.296Z,87.5
2023-01-30T04:58:40.401Z,87.5
2023-01-30T04:59:57.506Z,87.5
2023-01-30T05:01:14.611Z,87.7
2023-01-30T05:02:31.717Z,87.5
2023-01-30T05:03:48.822Z,87.5
2023-01-30T05:05:04.948Z,87.2
2023-01-30T05:06:21.070Z,87.1
2023-01-30T05:07:38.175Z,87.2
2023-01-30T05:08:55.281Z,87.5
2023-01-30T05:10:11.407Z,87.5
2023-01-30T05:11:27.528Z,87.5
2023-01-30T05:12:44.633Z,87.3
2023-01-30T05:14:01.739Z,87.6
2023-01-30T05:15:18.844Z,87.5
2023-01-30T05:16:35.949Z,87.9
2023-01-30T05:17:53.054Z,88.1
2023-01-30T05:19:10.161Z,88.2
2023-01-30T05:20:27.266Z,88.4
2023-01-30T05:21:44.371Z,88.5
2023-01-30T05:23:01.477Z,88.4
2023-01-30T05:24:18.582Z,88.3
2023-01-30T05:25:35.687Z,88.3
2023-01-30T05:26:52.792Z,88.5
2023-01-30T05:28:08.914Z,88.7
2023-01-30T05:29:26.019Z,88.4
2023-01-30T05:30:43.124Z,88.3
2023-01-30T05:32:00.230Z,88.2
2023-01-30T05:33:17.335Z,88.2
2023-01-30T05:34:34.440Z,88.1
2023-01-30T05:35:51.545Z,88.3
2023-01-30T05:37:07.672Z,88.7
2023-01-30T05:38:23.793Z,88.5
2023-01-30T05:39:39.920Z,88.7
2023-01-30T05:40:56.041Z,88.7
2023-01-30T05:42:13.146Z,89
2023-01-30T05:43:30.251Z,88.9
2023-01-30T05:44:47.357Z,88.8
2023-01-30T05:46:04.462Z,89.1
2023-01-30T05:47:21.567Z,89.5
2023-01-30T05:48:38.673Z,89.4
2023-01-30T05:49:55.778Z,89.2
2023-01-30T05:51:12.883Z,89.2
2023-01-30T05:52:29.988Z,89.4
2023-01-30T05:53:47.093Z,89.2
2023-01-30T05:55:04.198Z,88.9
2023-01-30T05:56:21.304Z,89.1
2023-01-30T05:57:37.425Z,89
2023-01-30T05:58:54.530Z,89
2023-01-30T06:01:28.741Z,88.8
2023-01-30T06:02:45.846Z,88.9
2023-01-30T06:04:02.951Z,89
2023-01-30T06:05:20.056Z,88.9
2023-01-30T06:06:37.163Z,89.1
2023-01-30T06:07:53.289Z,89
2023-01-30T06:09:09.410Z,88.9
2023-01-30T06:10:25.537Z,89
2023-01-30T06:11:41.658Z,88.6
2023-01-30T06:12:58.763Z,88.8
2023-01-30T06:14:15.869Z,88.5
2023-01-30T06:15:32.974Z,88.5
2023-01-30T06:16:50.079Z,88.8
2023-01-30T06:18:07.184Z,88.8
2023-01-30T06:19:24.290Z,88.9
2023-01-30T06:20:41.395Z,88.8
2023-01-30T06:21:58.500Z,88.8
2023-01-30T06:23:15.605Z,89
2023-01-30T06:24:32.711Z,89.1
2023-01-30T06:25:49.816Z,89.3
2023-01-30T06:27:06.921Z,89.7
2023-01-30T06:28:23.042Z,90.1
2023-01-30T06:29:40.147Z,90.2
2023-01-30T06:30:57.252Z,90
2023-01-30T06:32:14.358Z,89.3
2023-01-30T06:33:31.463Z,89.5
2023-01-30T06:34:48.568Z,89.5
2023-01-30T06:36:05.673Z,89.1
2023-01-30T06:37:21.800Z,89
2023-01-30T06:38:37.921Z,88.6
2023-01-30T06:39:55.026Z,89
2023-01-30T06:41:12.132Z,88.9
2023-01-30T06:42:28.258Z,89.4
2023-01-30T06:43:44.379Z,89.6
2023-01-30T06:45:01.484Z,89.5
2023-01-30T06:46:18.589Z,90
2023-01-30T06:47:35.695Z,89.8
2023-01-30T06:48:52.800Z,89.6
2023-01-30T06:50:09.904Z,89.7
2023-01-30T06:51:27.010Z,90.3
2023-01-30T06:52:44.115Z,90.4
2023-01-30T06:54:01.220Z,90.3
2023-01-30T06:55:18.325Z,90.7
2023-01-30T06:56:35.430Z,90.5
2023-01-30T06:57:52.535Z,90
2023-01-30T06:59:09.640Z,90
2023-01-30T07:00:25.761Z,89.8
2023-01-30T07:01:42.866Z,90
2023-01-30T07:02:59.971Z,89.9
2023-01-30T07:04:17.076Z,90
2023-01-30T07:05:34.181Z,89.8
2023-01-30T07:06:51.287Z,89.5
2023-01-30T07:08:08.392Z,89.5
2023-01-30T07:09:24.518Z,89.4
2023-01-30T07:10:40.639Z,89.1
2023-01-30T07:11:56.766Z,89.1
2023-01-30T07:13:12.886Z,89.3
2023-01-30T07:14:29.991Z,89.1
2023-01-30T07:15:47.096Z,89.1
2023-01-30T07:17:04.201Z,89.1
2023-01-30T07:18:21.306Z,89
2023-01-30T07:19:38.412Z,89.1
2023-01-30T07:20:55.516Z,88.8
2023-01-30T07:22:12.621Z,88.8
2023-01-30T07:23:29.727Z,88.8
2023-01-30T07:24:46.832Z,88.4
2023-01-30T07:26:03.937Z,88.8
2023-01-30T07:27:21.042Z,88.8
2023-01-30T07:28:38.147Z,88.9
2023-01-30T07:29:54.268Z,89
2023-01-30T07:31:11.373Z,89.2
2023-01-30T07:32:28.478Z,89.2
2023-01-30T07:33:45.583Z,88.9
2023-01-30T07:35:02.688Z,89.1
2023-01-30T07:36:19.793Z,89
2023-01-30T07:37:36.898Z,89.1
2023-01-30T07:38:53.024Z,89.1
2023-01-30T07:40:09.145Z,89
2023-01-30T07:41:26.250Z,89
2023-01-30T07:42:43.355Z,88.9
2023-01-30T07:43:59.482Z,89
2023-01-30T07:45:15.603Z,88.8
2023-01-30T07:46:32.707Z,88.9
2023-01-30T07:47:49.812Z,89
2023-01-30T07:49:06.917Z,88.8
2023-01-30T07:50:24.022Z,88.7
2023-01-30T07:51:41.127Z,88.5
2023-01-30T07:52:58.232Z,88.5
2023-01-30T07:54:15.337Z,88.9
2023-01-30T07:55:32.442Z,88.7
2023-01-30T07:56:49.547Z,88.5
2023-01-30T07:58:06.652Z,88.8
2023-01-30T07:59:23.757Z,88.6
2023-01-30T08:00:40.862Z,88.3
2023-01-30T08:01:56.983Z,88.2
2023-01-30T08:03:14.087Z,88.1
2023-01-30T08:04:31.192Z,87.9
2023-01-30T08:05:48.297Z,87.7
2023-01-30T08:07:05.402Z,87.6
2023-01-30T08:08:22.507Z,87.4
2023-01-30T08:09:39.612Z,87.5
2023-01-30T08:10:55.739Z,87.6
2023-01-30T08:12:11.860Z,87.6
2023-01-30T08:13:27.986Z,87.6
2023-01-30T08:14:44.107Z,87.4
2023-01-30T08:16:01.212Z,87.2
2023-01-30T08:17:18.317Z,87.2
2023-01-30T08:18:35.422Z,87.2
2023-01-30T08:19:52.527Z,87.2
2023-01-30T08:21:09.632Z,87.3
2023-01-30T08:22:26.738Z,87.4
2023-01-30T08:23:43.843Z,87.3
2023-01-30T08:25:00.948Z,87.4
2023-01-30T08:26:18.052Z,87.4
2023-01-30T08:27:35.157Z,87.3
2023-01-30T08:28:52.262Z,87.5
2023-01-30T08:30:09.367Z,87.5
2023-01-30T08:31:25.488Z,87.7
2023-01-30T08:32:42.593Z,87.6
2023-01-30T08:33:59.699Z,87.5
2023-01-30T08:35:16.803Z,87.2
2023-01-30T08:36:33.908Z,86.8
2023-01-30T08:37:51.013Z,86.8
2023-01-30T08:39:08.118Z,87
2023-01-30T08:40:24.244Z,86.5
2023-01-30T08:41:40.365Z,86.7
2023-01-30T08:42:57.470Z,86.8
2023-01-30T08:44:13.596Z,86.5
2023-01-30T08:45:29.717Z,86.4
2023-01-30T08:46:46.822Z,86.2
2023-01-30T08:48:03.927Z,86.3
2023-01-30T08:49:21.032Z,86.2
2023-01-30T08:50:38.137Z,86.4
2023-01-30T08:51:55.242Z,86.3
2023-01-30T08:53:12.347Z,85.8
2023-01-30T08:54:29.452Z,85.5
2023-01-30T08:55:46.557Z,85.4
2023-01-30T08:57:03.662Z,85.1
2023-01-30T08:58:20.766Z,84.4
2023-01-30T08:59:37.872Z,83.6
2023-01-30T09:00:54.977Z,83.3
2023-01-30T09:02:11.098Z,82.8
2023-01-30T09:03:28.202Z,82.6
2023-01-30T09:04:45.305Z,81.7
2023-01-30T09:06:02.410Z,81.9
2023-01-30T09:07:19.513Z,81.9
2023-01-30T09:08:36.618Z,81.4
2023-01-30T09:09:53.723Z,81.4
2023-01-30T09:11:10.828Z,81.5
2023-01-30T09:12:27.933Z,81
2023-01-30T09:13:44.054Z,81.1
2023-01-30T09:15:01.159Z,80.5
2023-01-30T09:16:18.264Z,80.5
2023-01-30T09:17:35.369Z,80.1
2023-01-30T09:18:52.474Z,80.1
2023-01-30T09:20:09.579Z,79.8
2023-01-30T09:21:26.684Z,79.3
2023-01-30T09:22:43.789Z,79
2023-01-30T09:24:00.894Z,78.5
2023-01-30T09:25:18.000Z,78
2023-01-30T09:26:34.126Z,77.1
2023-01-30T09:27:50.247Z,77.1
2023-01-30T09:29:07.352Z,77
2023-01-30T09:30:23.478Z,76.3
2023-01-30T09:31:39.599Z,77.3
2023-01-30T09:32:56.704Z,77.7
2023-01-30T09:34:13.808Z,77.4
2023-01-30T09:35:30.913Z,77.2
2023-01-30T09:36:48.018Z,76.9
2023-01-30T09:38:05.124Z,76.9
2023-01-30T09:39:22.229Z,76.8
2023-01-30T09:40:39.333Z,77.1
2023-01-30T09:41:56.438Z,77
2023-01-30T09:43:13.543Z,76.5
2023-01-30T09:44:30.648Z,76.2
2023-01-30T09:45:47.753Z,76.9
2023-01-30T09:47:04.857Z,77.5
2023-01-30T09:48:20.978Z,78
2023-01-30T09:49:38.083Z,78.5
2023-01-30T09:50:55.188Z,78.6
2023-01-30T09:52:12.294Z,79.1
2023-01-30T09:53:29.398Z,79.7
2023-01-30T09:54:46.503Z,79.5
2023-01-30T09:56:03.608Z,79.5
2023-01-30T09:57:19.734Z,79.7
2023-01-30T09:58:35.855Z,80.2
2023-01-30T09:59:51.981Z,80
2023-01-30T10:01:08.102Z,79.8
2023-01-30T10:02:25.207Z,79.8
2023-01-30T10:03:42.312Z,79.2
2023-01-30T10:04:59.415Z,78.8
2023-01-30T10:06:16.520Z,78.7
2023-01-30T10:07:33.625Z,78.7
2023-01-30T10:08:50.729Z,78.1
2023-01-30T10:10:07.834Z,77.7
2023-01-30T10:11:24.939Z,77.2
2023-01-30T10:12:42.044Z,77.2
2023-01-30T10:13:59.148Z,77
2023-01-30T10:15:16.253Z,76.5
2023-01-30T10:16:33.358Z,76.5
2023-01-30T10:17:49.479Z,75.6
2023-01-30T10:19:06.584Z,75.2
2023-01-30T10:20:23.689Z,74.9
2023-01-30T10:21:40.793Z,74.7
2023-01-30T10:22:57.898Z,74.9
2023-01-30T10:24:15.003Z,74.6
2023-01-30T10:25:32.108Z,74
2023-01-30T10:26:48.234Z,74.2
2023-01-30T10:28:04.355Z,74.3
2023-01-30T10:29:21.460Z,74.6
2023-01-30T10:30:38.565Z,75.3
2023-01-30T10:31:54.691Z,75.1
2023-01-30T10:33:10.812Z,75.2
2023-01-30T10:34:27.916Z,75.3
2023-01-30T10:35:45.021Z,75.2
2023-01-30T10:37:02.126Z,75.4
2023-01-30T10:38:19.229Z,75.6
2023-01-30T10:39:36.334Z,75.6
2023-01-30T10:40:53.438Z,75.4
2023-01-30T10:42:10.543Z,76.1
2023-01-30T10:43:27.648Z,76.2
2023-01-30T10:44:44.753Z,76.4
2023-01-30T10:46:01.858Z,76.3
2023-01-30T10:47:18.963Z,75.9
2023-01-30T10:48:36.067Z,76.2
2023-01-30T10:49:52.188Z,76.1
2023-01-30T10:51:09.293Z,76.5
2023-01-30T10:52:26.398Z,75.5
2023-01-30T10:53:43.503Z,76
2023-01-30T10:55:00.608Z,75.8
2023-01-30T10:56:17.712Z,75.2
2023-01-30T10:57:34.817Z,75.6
2023-01-30T10:58:50.943Z,75.6
2023-01-30T11:00:07.064Z,75.8
2023-01-30T11:01:23.190Z,75.7
2023-01-30T11:02:39.311Z,76.2
2023-01-30T11:03:56.416Z,76.3
2023-01-30T11:05:13.521Z,76.4
2023-01-30T11:06:30.626Z,76.5
2023-01-30T11:07:47.731Z,76
2023-01-30T11:09:04.836Z,75.7
2023-01-30T11:10:21.941Z,76.2
2023-01-30T11:11:39.046Z,76.5
2023-01-30T11:12:56.151Z,76.6
2023-01-30T11:14:13.256Z,76.6
2023-01-30T11:15:30.361Z,76.5
2023-01-30T11:16:47.465Z,76.8
2023-01-30T11:21:55.885Z,76.5
2023-01-30T11:23:12.011Z,76.7
2023-01-30T11:24:28.132Z,76.8
2023-01-30T11:25:45.237Z,76.7
2023-01-30T11:27:02.342Z,77.1
2023-01-30T11:28:19.447Z,77
2023-01-30T11:29:36.552Z,77.3
2023-01-30T11:30:53.657Z,77.7
2023-01-30T11:32:10.762Z,78.2
2023-01-30T11:33:27.867Z,78.2
2023-01-30T11:34:44.971Z,78.4
2023-01-30T11:36:02.076Z,78.2
2023-01-30T11:37:18.203Z,78.2
2023-01-30T11:38:34.324Z,77.9
2023-01-30T11:39:51.428Z,77.1
2023-01-30T11:41:08.533Z,77.5
2023-01-30T11:42:25.638Z,77
2023-01-30T11:43:42.743Z,76.6
2023-01-30T11:44:59.848Z,76.5
2023-01-30T11:46:16.953Z,75.7
2023-01-30T11:47:34.058Z,75.6
2023-01-30T11:48:51.163Z,75.2
2023-01-30T11:50:08.268Z,75.6
2023-01-30T11:51:25.372Z,75.3
2023-01-30T11:52:42.477Z,75.8
2023-01-30T11:53:59.582Z,75.7
2023-01-30T11:55:15.703Z,75.6
2023-01-30T11:56:32.808Z,75.8
2023-01-30T11:57:49.913Z,75.6
2023-01-30T11:59:07.018Z,75.7
2023-01-30T12:00:24.123Z,76
2023-01-30T12:01:41.227Z,75.5
2023-01-30T12:02:58.333Z,75.8
2023-01-30T12:04:14.459Z,75.3
2023-01-30T12:05:30.580Z,75.6
2023-01-30T12:06:46.706Z,75.6
2023-01-30T12:08:02.827Z,75.3
2023-01-30T12:09:19.932Z,75.3
2023-01-30T12:10:37.037Z,75.2
2023-01-30T12:11:54.142Z,75.5
2023-01-30T12:13:11.247Z,75.1
2023-01-30T12:14:28.352Z,75.4
2023-01-30T12:15:45.457Z,75.7
2023-01-30T12:17:02.562Z,76
2023-01-30T12:18:19.667Z,76
2023-01-30T12:19:36.771Z,75.8
2023-01-30T12:20:53.876Z,75.5
2023-01-30T12:22:10.981Z,74.6
2023-01-30T12:23:28.086Z,74.8
2023-01-30T12:24:44.207Z,75.1
2023-01-30T12:26:01.312Z,74
2023-01-30T12:28:35.522Z,73.4
2023-01-30T12:29:52.626Z,73.2
2023-01-30T12:31:09.731Z,73
2023-01-30T12:32:26.836Z,72.7
2023-01-30T12:33:43.941Z,72.6
2023-01-30T12:35:00.067Z,72.8
2023-01-30T12:36:16.188Z,73.2
2023-01-30T12:37:33.293Z,72.8
2023-01-30T12:38:49.419Z,73.1
2023-01-30T12:40:05.540Z,72.7
2023-01-30T12:41:22.645Z,73.2
2023-01-30T12:42:39.749Z,72.6
2023-01-30T12:43:56.854Z,72.7
2023-01-30T12:45:13.959Z,73.6
2023-01-30T12:46:31.064Z,73.2
2023-01-30T12:47:48.168Z,73.2
2023-01-30T12:49:05.273Z,72.6
2023-01-30T12:50:22.378Z,72.5
2023-01-30T12:51:39.483Z,71.8
2023-01-30T12:52:56.587Z,72.2
2023-01-30T12:54:13.692Z,72.3
2023-01-30T12:55:30.797Z,71.6
2023-01-30T12:56:46.918Z,71.8
2023-01-30T12:58:04.022Z,71.8
2023-01-30T12:59:21.127Z,72.7
2023-01-30T13:00:38.232Z,71.7
2023-01-30T13:01:55.337Z,71.7
2023-01-30T13:03:12.442Z,71.6
2023-01-30T13:04:29.547Z,72.4
2023-01-30T13:05:45.673Z,71.6
2023-01-30T13:07:01.794Z,70.8
2023-01-30T13:08:17.920Z,70.9
2023-01-30T13:09:34.040Z,70.8
2023-01-30T13:10:51.145Z,70.2
2023-01-30T13:12:08.250Z,70.2
2023-01-30T13:13:25.355Z,70.1
2023-01-30T13:14:42.459Z,71.3
2023-01-30T13:15:59.564Z,70.5
2023-01-30T13:17:16.669Z,70.3
2023-01-30T13:18:33.774Z,70.8
2023-01-30T13:19:50.879Z,71.1
2023-01-30T13:21:07.983Z,71.5
2023-01-30T13:22:25.088Z,70.8
2023-01-30T13:23:42.193Z,71.1
2023-01-30T13:24:59.298Z,70.7
2023-01-30T13:26:15.419Z,70.7
2023-01-30T13:27:32.524Z,70.3
2023-01-30T13:28:49.628Z,70.3
2023-01-30T13:30:06.733Z,70.7
2023-01-30T13:31:22.854Z,71.1
2023-01-30T13:32:39.959Z,71
2023-01-30T13:33:57.063Z,71.3
2023-01-30T13:35:13.190Z,72
2023-01-30T13:36:29.310Z,72.2
2023-01-30T13:37:45.437Z,72.3
2023-01-30T13:39:01.557Z,72.3
2023-01-30T13:40:18.662Z,72.4
2023-01-30T13:41:35.767Z,73
2023-01-30T13:42:52.871Z,73
2023-01-30T13:44:09.977Z,72.8
2023-01-30T13:45:27.081Z,72.3
2023-01-30T13:46:44.186Z,72.3
2023-01-30T13:48:01.291Z,72.3
2023-01-30T13:49:18.395Z,72.3
2023-01-30T13:50:35.500Z,72.3
2023-01-30T13:51:52.605Z,72.6
2023-01-30T13:53:09.709Z,72.8
2023-01-30T13:54:26.814Z,72.4
2023-01-30T13:55:42.935Z,72.6
2023-01-30T13:57:00.040Z,72.3
2023-01-30T13:58:17.146Z,72.3
2023-01-30T13:59:34.250Z,72.5
2023-01-30T14:00:51.355Z,72.4
2023-01-30T14:02:08.460Z,72.7
2023-01-30T14:03:25.564Z,72.4
2023-01-30T14:04:42.669Z,72.6
2023-01-30T14:05:59.774Z,72.4
2023-01-30T14:07:16.879Z,72.5
2023-01-30T14:08:33.984Z,72.2
2023-01-30T14:09:51.088Z,72.2
2023-01-30T14:11:08.193Z,72.1
2023-01-30T14:22:42.136Z,69.7
2023-01-30T14:23:58.262Z,69.8
2023-01-30T14:25:14.383Z,69.5
2023-01-30T14:26:31.488Z,69.9
2023-01-30T14:27:48.592Z,70.3
2023-01-30T14:29:05.697Z,70.7
2023-01-30T14:30:22.802Z,71.1
2023-01-30T14:31:39.907Z,71
2023-01-30T14:32:57.012Z,71
2023-01-30T14:34:14.116Z,70.8
2023-01-30T14:35:31.221Z,71.2
2023-01-30T14:36:48.326Z,71.3
2023-01-30T14:38:04.452Z,70.9
2023-01-30T14:39:20.573Z,70.6
2023-01-30T14:40:37.678Z,70.8
2023-01-30T14:41:54.783Z,70.6
2023-01-30T14:43:11.888Z,70.6
2023-01-30T14:44:28.992Z,70.4
2023-01-30T14:45:46.097Z,70.7
2023-01-30T14:47:03.202Z,70.5
2023-01-30T14:48:20.307Z,70.3
2023-01-30T14:49:37.411Z,70.5
2023-01-30T14:50:54.516Z,70.6
2023-01-30T14:52:11.621Z,70.7
2023-01-30T14:53:28.726Z,70.6
2023-01-30T14:54:45.831Z,70.4
2023-01-30T14:56:01.952Z,70.9
2023-01-30T14:57:19.056Z,70.5
2023-01-30T14:58:36.162Z,70.6
2023-01-30T14:59:53.267Z,70.9
2023-01-30T15:01:10.372Z,70.8
2023-01-30T15:02:27.477Z,70.8
2023-01-30T15:03:44.582Z,70.9
2023-01-30T15:05:01.686Z,70.9
2023-01-30T15:06:18.791Z,70.6
2023-01-30T15:07:35.896Z,71
2023-01-30T15:08:53.001Z,71.5
2023-01-30T15:10:10.105Z,71.4
2023-01-30T15:11:27.210Z,71.4
2023-01-30T15:12:43.331Z,71.2
2023-01-30T15:14:00.436Z,70.9
2023-01-30T15:15:17.541Z,71.1
2023-01-30T15:16:34.646Z,71.3
2023-01-30T15:17:51.751Z,71.4
2023-01-30T15:20:25.960Z,71.5
2023-01-30T15:21:43.065Z,71.8
2023-01-30T15:23:00.170Z,71.4
2023-01-30T15:24:17.274Z,71.4
2023-01-30T15:25:34.380Z,71.8
2023-01-30T15:26:51.484Z,72.1
2023-01-30T15:28:08.589Z,72
2023-01-30T15:29:24.710Z,71.9
2023-01-30T15:30:41.815Z,71.9
2023-01-30T15:31:58.920Z,72.1
2023-01-30T15:33:15.046Z,71.8
2023-01-30T15:34:31.167Z,71.7
2023-01-30T15:35:48.271Z,71.9
2023-01-30T15:37:05.376Z,72.3
2023-01-30T15:38:22.481Z,71.8
2023-01-30T15:39:38.607Z,72.2
2023-01-30T15:40:54.728Z,71.8
2023-01-30T15:42:11.833Z,72
2023-01-30T15:43:28.938Z,72
2023-01-30T15:44:46.043Z,72.2
2023-01-30T15:46:03.148Z,72.2
2023-01-30T15:47:20.252Z,72.3
2023-01-30T15:48:37.357Z,72.8
2023-01-30T15:49:54.462Z,72.4
2023-01-30T15:51:11.567Z,72.7
2023-01-30T15:52:28.672Z,72.7
2023-01-30T15:53:45.777Z,73.8
2023-01-30T15:55:02.882Z,73
2023-01-30T15:56:19.987Z,73
2023-01-30T15:57:36.107Z,73.4
2023-01-30T15:58:53.212Z,73.4
2023-01-30T16:00:10.317Z,73.4
2023-01-30T16:01:27.422Z,73.5
2023-01-30T16:02:44.527Z,73.6
2023-01-30T16:04:01.632Z,73.3
2023-01-30T16:05:18.737Z,73.4
2023-01-30T16:06:34.863Z,73
2023-01-30T16:07:50.984Z,73.2
2023-01-30T16:09:08.089Z,73.3
2023-01-30T16:10:24.215Z,73.7
2023-01-30T16:11:40.336Z,73.6
2023-01-30T16:12:57.441Z,74
2023-01-30T16:14:14.546Z,73.8
2023-01-30T16:15:31.651Z,73.8
2023-01-30T16:16:48.756Z,73.9
2023-01-30T16:18:05.861Z,73.8
2023-01-30T16:19:22.966Z,73.9
2023-01-30T16:20:40.071Z,74
2023-01-30T16:21:57.176Z,73.9
2023-01-30T16:23:14.281Z,74.1
2023-01-30T16:24:31.385Z,74
2023-01-30T16:25:48.490Z,74.3
2023-01-30T16:27:05.595Z,74.2
2023-01-30T16:28:21.716Z,74.3
2023-01-30T16:29:38.821Z,74.3
2023-01-30T16:30:55.926Z,74.4
2023-01-30T16:32:13.031Z,74.1
2023-01-30T16:33:30.136Z,74.4
2023-01-30T16:34:47.241Z,74.3
2023-01-30T16:36:04.346Z,74.2
2023-01-30T16:37:21.451Z,74
2023-01-30T16:38:38.556Z,74
2023-01-30T16:39:55.660Z,74
2023-01-30T16:41:12.766Z,74
2023-01-30T16:42:29.871Z,73.8
2023-01-30T16:43:46.975Z,73.7
2023-01-30T16:45:03.097Z,73.8
2023-01-30T16:46:20.201Z,73.5
2023-01-30T16:47:37.306Z,73.6
2023-01-30T16:48:54.411Z,73.3
2023-01-30T16:50:10.537Z,73.4
2023-01-30T16:51:26.658Z,73.7
2023-01-30T16:52:43.763Z,73.6
2023-01-30T16:54:00.869Z,73.6
2023-01-30T16:55:17.974Z,73.7
2023-01-30T16:56:35.079Z,73.6
2023-01-30T16:57:51.205Z,73.5
2023-01-30T16:59:07.327Z,73.5
2023-01-30T17:00:24.431Z,73.8
2023-01-30T17:01:41.536Z,73.9
2023-01-30T17:02:58.641Z,73.8
2023-01-30T17:04:15.746Z,74.2
2023-01-30T17:05:32.851Z,73.3
2023-01-30T17:06:49.956Z,73.6
2023-01-30T17:08:07.061Z,73.7
2023-01-30T17:09:24.166Z,74
2023-01-30T17:10:41.272Z,74.1
2023-01-30T17:11:58.376Z,74
2023-01-30T17:13:15.481Z,74
2023-01-30T17:14:32.586Z,73.7
2023-01-30T17:15:48.707Z,73.7
2023-01-30T17:17:05.812Z,73.7
2023-01-30T17:18:22.917Z,73.7
2023-01-30T17:19:40.022Z,73.7
2023-01-30T17:20:57.127Z,73.5
2023-01-30T17:22:14.232Z,73.5
2023-01-30T17:23:31.336Z,73.8
2023-01-30T17:24:47.462Z,73.6
2023-01-30T17:26:03.584Z,73.7
2023-01-30T17:27:19.710Z,73.6
2023-01-30T17:28:35.831Z,73.6
2023-01-30T17:29:52.936Z,74